Coleman Falls, Virginia
Current Conditions -  °F | °C
As of 9:54 AM on Saturday 22 Nov 2014 (Local Time) from KLYH Reporting Station
Clear Clear  
Wind Chill: 24°   Ceiling: Unl
Heat Index: 33°   Visibility: 10mi
Dew Point: 16°   Wind: 12mph
Humidity: 50%   Direction: 200°SSW
Pressure: 30.52"   Gusts: NA
Location:  37.5°N, 79.3°W
Report Text: KLYH 221454Z 20010KT 10SM CLR 01/M09 A3052 RMK AO2 SLP343 T00061089 50000 $
Loading
Personal Weather Stations






























Interactive Weather Map New forecast layout! Learn more

10-Day Weather Forecast

Advertisements
Track Severe Weather on mobile